Time;durP1;ratioP1;P1;durP2;ratioP2;P2;SDS_P1;SDS_P2;PMS_P1;PMS_P2;Temp;Humidity;BMP_temperature;BMP_pressure;BME280_temperature;BME280_humidity;BME280_pressure;Samples;Min_cycle;Max_cycle;Signal;HPM_P1;HPM_P2
2023/02/18 00:01:33;;;;;;;25.80;15.80;;;;;;;-0.13;85.65;101027.31;109868;1239;61866;-95
2023/02/18 00:04:01;;;;;;;24.70;15.00;;;;;;;-0.09;85.99;101019.20;110031;1239;61473;-94
2023/02/18 00:06:46;;;;;;;;;;;;;;;-0.05;86.11;101010.55;110805;1239;72295;-94
2023/02/18 00:09:17;;;;;;;22.30;13.90;;;;;;;0.00;86.35;101005.71;111792;1239;63695;-92
2023/02/18 00:12:00;;;;;;;27.60;17.00;;;;;;;0.04;85.91;101001.20;110616;1239;71211;-94
2023/02/18 00:14:33;;;;;;;32.00;20.20;;;;;;;0.04;86.03;100990.89;110200;1235;59682;-94
2023/02/18 00:17:05;;;;;;;30.90;16.70;;;;;;;0.08;86.32;100989.29;110989;1235;60682;-92
2023/02/18 00:19:34;;;;;;;29.40;17.00;;;;;;;0.13;85.84;100991.64;111256;1235;73214;-92
2023/02/18 00:22:04;;;;;;;32.10;19.10;;;;;;;0.20;85.72;100987.96;111357;1235;63402;-93
2023/02/18 00:24:32;;;;;;;29.90;17.60;;;;;;;0.25;85.63;100981.02;111552;1239;73950;-91
2023/02/18 00:27:51;;;;;;;28.90;18.40;;;;;;;0.31;85.57;100973.21;106162;1282;613387;-93
2023/02/18 00:30:24;;;;;;;29.30;18.60;;;;;;;0.35;85.36;100964.05;107748;1270;60480;-95
2023/02/18 00:32:55;;;;;;;28.30;18.40;;;;;;;0.32;85.12;100951.70;107733;1260;59302;-93
2023/02/18 00:35:36;;;;;;;29.50;16.40;;;;;;;0.34;85.43;100950.99;107799;1254;72158;-91
2023/02/18 00:38:06;;;;;;;26.40;15.40;;;;;;;0.32;84.69;100947.41;107871;1254;62462;-92
2023/02/18 00:40:39;;;;;;;26.90;15.40;;;;;;;0.26;84.36;100944.73;107115;1254;613705;-93
2023/02/18 00:43:08;;;;;;;28.40;17.30;;;;;;;0.16;84.46;100937.45;107846;1254;61378;-94
2023/02/18 00:45:38;;;;;;;30.90;18.60;;;;;;;0.14;84.98;100935.77;107927;1254;61871;-93
2023/02/18 00:48:10;;;;;;;37.40;21.20;;;;;;;0.21;85.37;100937.40;108424;1253;73133;-93
2023/02/18 00:50:43;;;;;;;31.40;17.30;;;;;;;0.29;85.72;100937.82;109038;1253;62908;-94
2023/02/18 00:53:13;;;;;;;28.10;17.60;;;;;;;0.38;85.58;100940.29;109099;1254;72678;-94
2023/02/18 00:55:42;;;;;;;30.90;18.20;;;;;;;0.44;84.99;100938.84;108050;1254;59665;-94
2023/02/18 00:58:34;;;;;;;32.80;18.90;;;;;;;0.44;84.54;100938.14;108325;1253;60339;-93
2023/02/18 01:01:06;;;;;;;32.80;18.40;;;;;;;0.44;84.36;100940.72;107879;1254;73378;-93
2023/02/18 01:03:39;;;;;;;35.10;21.00;;;;;;;0.43;84.25;100937.30;108179;1251;63899;-93
2023/02/18 01:06:08;;;;;;;33.70;19.90;;;;;;;0.42;84.14;100940.06;108287;1260;73466;-93
2023/02/18 01:08:36;;;;;;;33.30;18.50;;;;;;;0.45;84.08;100937.78;108198;1250;61987;-92
2023/02/18 01:11:07;;;;;;;30.50;19.60;;;;;;;0.46;83.95;100935.89;108165;1251;60563;-92
2023/02/18 01:13:37;;;;;;;31.60;18.00;;;;;;;0.46;84.09;100932.95;108218;1251;74212;-92
2023/02/18 01:16:07;;;;;;;30.70;18.10;;;;;;;0.51;83.90;100928.77;107933;1251;63904;-92
2023/02/18 01:18:39;;;;;;;29.00;17.30;;;;;;;0.50;83.81;100926.89;108031;1250;71627;-93
2023/02/18 01:21:07;;;;;;;38.40;19.90;;;;;;;0.46;83.49;100916.96;108343;1251;59770;-93
2023/02/18 01:23:37;;;;;;;33.50;18.90;;;;;;;0.48;83.69;100914.88;107998;1250;61036;-91
2023/02/18 01:26:05;;;;;;;36.60;21.40;;;;;;;0.50;83.76;100910.89;107996;1250;72954;-94
2023/02/18 01:28:35;;;;;;;32.60;19.40;;;;;;;0.55;83.68;100913.91;107927;1251;64376;-93
2023/02/18 01:31:05;;;;;;;36.10;19.50;;;;;;;0.59;83.54;100910.58;108046;1250;72618;-94
2023/02/18 01:33:37;;;;;;;34.90;18.10;;;;;;;0.59;83.22;100897.52;108655;1250;61177;-92
2023/02/18 01:36:11;;;;;;;38.20;20.90;;;;;;;0.57;82.68;100897.20;109145;1251;60320;-91
2023/02/18 01:38:41;;;;;;;37.50;19.10;;;;;;;0.51;82.84;100891.09;108774;1252;73743;-93
2023/02/18 01:41:10;;;;;;;30.40;18.80;;;;;;;0.51;83.02;100891.09;108550;1251;63818;-92
2023/02/18 01:43:40;;;;;;;37.40;19.80;;;;;;;0.55;83.23;100888.80;108598;1251;72836;-94
2023/02/18 01:46:12;;;;;;;30.60;18.40;;;;;;;0.58;83.33;100884.11;109520;1250;59347;-93
2023/02/18 01:48:54;;;;;;;33.10;18.60;;;;;;;0.59;82.66;100878.25;109518;1251;60062;-92
2023/02/18 01:51:30;;;;;;;37.40;16.90;;;;;;;0.56;82.66;100868.99;109876;1251;72789;-89
2023/02/18 01:54:08;;;;;;;28.60;16.90;;;;;;;0.57;82.63;100861.41;108682;1251;63738;-93
2023/02/18 01:57:00;;;;;;;34.30;19.90;;;;;;;0.54;82.41;100860.42;109200;1251;72619;-94
2023/02/18 01:59:37;;;;;;;31.80;17.60;;;;;;;0.51;82.64;100857.20;108956;1251;59210;-91
2023/02/18 02:02:07;;;;;;;36.10;18.80;;;;;;;0.49;82.56;100847.42;108834;1251;60386;-92
2023/02/18 02:04:37;;;;;;;37.90;21.40;;;;;;;0.46;82.45;100842.31;108764;1251;73531;-91
2023/02/18 02:07:06;;;;;;;37.70;20.70;;;;;;;0.44;82.72;100842.52;108582;1252;63803;-93
2023/02/18 02:09:35;;;;;;;36.40;19.50;;;;;;;0.45;83.21;100841.30;108148;1251;72500;-91
2023/02/18 02:12:17;;;;;;;37.80;20.60;;;;;;;0.48;83.04;100839.53;108024;1251;59703;-91
2023/02/18 02:15:34;;;;;;;38.00;19.90;;;;;;;0.48;83.33;100839.53;107984;1253;60309;-94
2023/02/18 02:18:15;;;;;;;39.10;19.20;;;;;;;0.49;83.18;100838.14;109681;1250;73038;-92
2023/02/18 02:21:09;;;;;;;39.90;20.50;;;;;;;0.47;83.11;100837.33;108021;1259;65705;-94
2023/02/18 02:24:14;;;;;;;42.60;21.80;;;;;;;0.41;83.07;100830.02;108210;1251;72640;-94
2023/02/18 02:27:07;;;;;;;42.80;21.40;;;;;;;0.35;83.15;100828.03;108387;1251;61885;-94
2023/02/18 02:29:52;;;;;;;40.80;20.90;;;;;;;0.33;83.47;100827.02;107986;1250;60031;-92
2023/02/18 02:32:55;;;;;;;40.70;21.60;;;;;;;0.33;83.66;100831.66;108017;1253;72945;-93
2023/02/18 02:35:37;;;;;;;45.40;23.90;;;;;;;0.32;83.79;100840.28;108093;1251;63695;-93
2023/02/18 02:38:18;;;;;;;47.50;23.30;;;;;;;0.27;84.04;100839.31;107816;1251;72662;-91
2023/02/18 02:40:55;;;;;;;42.70;24.10;;;;;;;0.25;84.19;100839.69;107909;1251;59650;-94
2023/02/18 02:43:51;;;;;;;42.20;23.90;;;;;;;0.24;84.40;100833.34;108994;1251;59244;-91
2023/02/18 02:46:33;;;;;;;41.20;22.70;;;;;;;0.25;84.34;100825.59;108720;1251;72953;-92
2023/02/18 02:49:20;;;;;;;41.00;21.80;;;;;;;0.23;84.38;100813.94;108378;1251;63675;-91
2023/02/18 02:52:04;;;;;;;42.60;22.90;;;;;;;0.23;84.30;100808.10;107705;1259;71415;-93
2023/02/18 02:54:31;;;;;;;43.90;21.40;;;;;;;0.23;84.35;100792.79;107935;1251;61082;-91
2023/02/18 02:57:35;;;;;;;49.20;24.20;;;;;;;0.25;84.54;100786.41;108844;1250;60213;-89
2023/02/18 03:00:40;;;;;;;40.60;22.80;;;;;;;0.29;84.89;100777.74;109040;1260;74275;-93
2023/02/18 03:03:21;;;;;;;47.00;26.30;;;;;;;0.34;84.75;100773.02;107814;1260;63855;-94
2023/02/18 03:05:55;;;;;;;48.70;23.30;;;;;;;0.35;84.76;100765.61;108083;1260;73700;-94
2023/02/18 03:09:09;;;;;;;40.80;23.20;;;;;;;0.37;84.69;100758.18;108294;1260;59745;-93
2023/02/18 03:12:10;;;;;;;46.90;26.00;;;;;;;0.38;84.44;100751.28;108054;1265;60102;-92
2023/02/18 03:15:09;;;;;;;47.10;24.40;;;;;;;0.35;84.16;100753.73;107544;1265;73356;-94
2023/02/18 03:17:57;;;;;;;45.10;23.80;;;;;;;0.32;83.95;100751.21;108238;1266;64297;-95
2023/02/18 03:20:35;;;;;;;41.70;23.30;;;;;;;0.25;84.23;100764.73;108096;1265;72885;-93
2023/02/18 03:23:11;;;;;;;47.00;26.50;;;;;;;0.23;84.63;100770.95;107309;1265;61173;-92
2023/02/18 03:25:40;;;;;;;48.20;25.10;;;;;;;0.22;84.99;100772.52;106841;1267;59182;-94
2023/02/18 03:28:16;;;;;;;52.70;25.40;;;;;;;0.25;85.17;100759.75;106940;1265;73999;-94
2023/02/18 03:30:49;;;;;;;47.70;24.50;;;;;;;0.30;85.38;100740.23;106977;1267;63898;-93
2023/02/18 03:33:40;;;;;;;52.60;25.90;;;;;;;0.35;85.24;100730.87;106599;1265;71597;-95
2023/02/18 03:36:11;;;;;;;47.10;26.10;;;;;;;0.36;85.01;100737.90;106668;1265;59705;-93
2023/02/18 03:38:56;;;;;;;43.20;24.40;;;;;;;0.34;84.92;100734.33;107494;1262;61821;-92
2023/02/18 03:41:25;;;;;;;51.80;24.30;;;;;;;0.28;85.00;100733.20;107868;1258;74459;-93
2023/02/18 03:44:04;;;;;;;53.10;27.30;;;;;;;0.23;85.33;100738.29;109484;1251;64026;-94
2023/02/18 03:47:02;;;;;;;51.10;26.60;;;;;;;0.17;85.77;100730.30;108718;1251;71393;-93
2023/02/18 03:49:31;;;;;;;53.70;25.30;;;;;;;0.17;86.22;100724.79;108434;1251;62026;-93
2023/02/18 03:52:05;;;;;;;53.00;24.80;;;;;;;0.18;86.21;100724.77;108453;1250;60286;-92
2023/02/18 03:54:37;;;;;;;52.40;25.70;;;;;;;0.18;86.43;100721.52;108413;1251;72154;-93
2023/02/18 03:57:10;;;;;;;50.00;24.40;;;;;;;0.18;86.48;100712.76;108438;1251;64045;-92
2023/02/18 03:59:41;;;;;;;52.50;25.70;;;;;;;0.19;86.82;100696.73;108278;1251;71818;-94
2023/02/18 04:02:11;;;;;;;51.60;24.70;;;;;;;0.23;87.00;100689.45;108499;1250;61169;-95
2023/02/18 04:04:40;;;;;;;50.30;25.70;;;;;;;0.25;86.70;100682.04;108381;1250;61259;-94
2023/02/18 04:07:11;;;;;;;53.10;26.20;;;;;;;0.28;87.05;100674.75;108980;1251;74167;-95
2023/02/18 04:09:41;;;;;;;44.80;24.00;;;;;;;0.32;87.11;100666.27;108774;1251;62740;-96
2023/02/18 04:12:09;;;;;;;52.50;25.60;;;;;;;0.33;86.99;100663.84;109594;1251;72788;-94
2023/02/18 04:14:50;;;;;;;46.40;24.80;;;;;;;0.36;87.25;100661.90;109702;1250;59946;-94
2023/02/18 04:17:24;;;;;;;56.90;27.90;;;;;;;0.42;87.16;100664.71;109390;1250;60286;-93
2023/02/18 04:19:52;;;;;;;53.70;26.20;;;;;;;0.43;87.10;100662.14;109451;1251;73120;-92
2023/02/18 04:22:22;;;;;;;52.20;26.20;;;;;;;0.43;86.88;100654.90;109373;1251;65916;-93
2023/02/18 04:24:51;;;;;;;44.30;22.00;;;;;;;0.38;86.84;100642.09;109636;1251;72692;-94
2023/02/18 04:27:20;;;;;;;46.10;26.00;;;;;;;0.38;86.81;100651.90;109656;1251;60827;-93
2023/02/18 04:29:49;;;;;;;55.20;26.70;;;;;;;0.37;86.81;100651.05;108339;1251;60651;-93
2023/02/18 04:32:19;;;;;;;48.30;23.60;;;;;;;0.36;87.04;100656.93;108977;1250;73109;-93
2023/02/18 04:34:48;;;;;;;48.40;24.00;;;;;;;0.35;87.07;100661.74;108601;1251;63910;-94
2023/02/18 04:37:20;;;;;;;51.30;24.20;;;;;;;0.36;87.35;100661.05;108254;1250;72708;-93
2023/02/18 04:39:50;;;;;;;46.60;23.10;;;;;;;0.38;87.73;100659.29;109919;1251;60429;-91
2023/02/18 04:46:26;;;;;;;50.20;25.90;;;;;;;0.47;87.76;100640.02;106320;1280;613284;-92
2023/02/18 04:49:00;;;;;;;49.00;23.90;;;;;;;0.44;87.61;100627.54;107056;1267;61981;-96
2023/02/18 04:51:31;;;;;;;59.20;27.60;;;;;;;0.45;87.68;100624.59;107325;1266;60110;-96
2023/02/18 04:54:04;;;;;;;50.40;24.30;;;;;;;0.43;87.69;100620.67;107121;1265;73490;-94
2023/02/18 04:56:41;;;;;;;47.50;25.60;;;;;;;0.48;87.79;100623.34;107704;1256;62795;-93
2023/02/18 04:59:13;;;;;;;47.20;22.10;;;;;;;0.50;87.89;100615.73;107470;1254;1007388;-92
2023/02/18 05:01:47;;;;;;;41.90;20.90;;;;;;;0.51;87.97;100613.98;107890;1254;59439;-94
2023/02/18 05:04:30;;;;;;;53.50;25.60;;;;;;;0.51;88.03;100611.23;107500;1254;61921;-94
2023/02/18 05:07:00;;;;;;;51.30;26.10;;;;;;;0.53;88.33;100610.51;108358;1251;72172;-95
2023/02/18 05:09:45;;;;;;;49.40;24.00;;;;;;;0.57;88.22;100602.70;109547;1251;63496;-94
2023/02/18 05:12:16;;;;;;;55.70;25.10;;;;;;;0.59;88.23;100591.82;108176;1251;73183;-94
2023/02/18 05:14:51;;;;;;;55.70;27.40;;;;;;;0.62;88.25;100581.63;108043;1252;62752;-93
2023/02/18 05:17:49;;;;;;;52.70;25.60;;;;;;;0.66;88.30;100577.40;109100;1251;58821;-94
2023/02/18 05:20:21;;;;;;;45.50;24.30;;;;;;;0.68;88.32;100579.79;108974;1251;72005;-96
2023/02/18 05:22:59;;;;;;;46.20;24.30;;;;;;;0.65;88.33;100575.71;108717;1250;62915;-95
2023/02/18 05:25:55;;;;;;;49.30;24.20;;;;;;;0.63;88.73;100567.31;108089;1263;72655;-93
2023/02/18 05:28:24;;;;;;;43.50;23.00;;;;;;;0.66;88.94;100560.39;108215;1254;59574;-93
2023/02/18 05:30:52;;;;;;;50.50;26.80;;;;;;;0.68;88.83;100557.94;109247;1254;60058;-94
2023/02/18 05:33:40;;;;;;;46.00;22.70;;;;;;;0.67;88.60;100562.08;109397;1254;73906;-96
2023/02/18 05:36:12;;;;;;;45.10;22.60;;;;;;;0.68;88.70;100563.95;109328;1254;62086;-93
2023/02/18 08:51:25;;;;;;;;;;;;;;;;;;;;;
2023/02/18 09:14:24;;;;;;;35.40;21.00;;;;;;;1.97;91.48;100029.89;107815;1276;73701;-89
2023/02/18 09:17:56;;;;;;;32.50;20.30;;;;;;;2.04;91.51;100011.86;107257;1282;65554;-96
2023/02/18 09:21:35;;;;;;;29.60;17.30;;;;;;;2.08;91.34;100002.77;107575;1278;71394;-95
2023/02/18 09:38:10;;;;;;;35.40;19.40;;;;;;;2.04;91.72;99961.87;108153;1272;71313;-94
2023/02/18 09:42:26;;;;;;;34.90;20.60;;;;;;;2.04;92.12;99950.31;107739;1274;62932;-93
2023/02/18 09:47:31;;;;;;;37.90;22.50;;;;;;;2.07;92.71;99926.45;106238;1291;58822;-90
2023/02/18 09:51:07;;;;;;;37.60;23.80;;;;;;;2.10;93.13;99908.92;106456;1292;73755;-94
2023/02/18 09:54:48;;;;;;;38.10;24.10;;;;;;;2.14;93.25;99898.62;108624;1268;62426;-93
2023/02/18 10:13:36;;;;;;;35.60;21.40;;;;;;;2.20;93.63;99854.40;108513;1264;62641;-94
2023/02/18 11:20:19;;;;;;;;;;;;;;;;;;;;;
2023/02/18 11:24:30;;;;;;;32.50;19.30;;;;;;;2.59;97.55;99732.12;106072;1295;71669;-94
2023/02/18 11:28:36;;;;;;;15.50;6.20;;;;;;;2.64;97.69;99733.80;105833;1298;64534;-93
2023/02/18 11:31:51;;;;;;;35.30;20.90;;;;;;;2.73;97.93;99734.98;105394;1306;71681;-94
2023/02/18 11:34:47;;;;;;;27.10;16.30;;;;;;;2.79;97.79;99731.27;107315;1267;63012;-92
2023/02/18 21:58:19;;;;;;;8.40;4.90;;;;;;;4.14;75.23;99834.01;109148;1263;59686;-94
2023/02/18 22:01:30;;;;;;;8.60;3.90;;;;;;;4.11;75.17;99839.48;109126;1263;61064;-93
2023/02/18 22:04:18;;;;;;;11.00;3.60;;;;;;;4.09;75.22;99834.95;109529;1260;73258;-94
2023/02/18 22:07:49;;;;;;;9.30;4.00;;;;;;;4.13;75.32;99840.09;108486;1265;65061;-94
2023/02/18 22:10:21;;;;;;;14.10;5.10;;;;;;;4.16;75.37;99839.81;108434;1267;74466;-93
2023/02/18 22:13:21;;;;;;;21.50;7.10;;;;;;;4.18;75.21;99839.88;108625;1266;57490;-95
2023/02/18 22:16:29;;;;;;;9.90;4.90;;;;;;;4.21;75.17;99840.12;109084;1265;59992;-92
2023/02/18 22:19:27;;;;;;;12.00;4.80;;;;;;;4.22;75.02;99837.61;108916;1270;73870;-95
2023/02/18 22:24:18;;;;;;;14.30;5.30;;;;;;;4.25;74.61;99835.23;106460;1285;599812;-94
2023/02/18 22:27:18;;;;;;;13.50;5.60;;;;;;;4.21;74.60;99834.76;108832;1254;59427;-94
2023/02/18 22:30:13;;;;;;;10.90;4.40;;;;;;;4.18;74.32;99834.01;109155;1254;59138;-92
2023/02/18 22:32:51;;;;;;;10.70;4.90;;;;;;;4.19;74.35;99836.75;108800;1257;72063;-94
2023/02/18 22:35:42;;;;;;;8.70;3.90;;;;;;;4.16;74.48;99835.48;108417;1256;63115;-91
2023/02/18 22:40:33;;;;;;;12.00;4.80;;;;;;;4.19;74.38;99839.33;105554;1294;615670;-94
2023/02/18 22:44:52;;;;;;;9.70;4.50;;;;;;;4.17;74.54;99834.04;108715;1268;62389;-92
2023/02/18 22:47:51;;;;;;;9.30;3.70;;;;;;;4.20;74.55;99836.17;109107;1261;61474;-93
2023/02/18 22:50:49;;;;;;;10.80;4.80;;;;;;;4.21;74.50;99835.57;108700;1266;70987;-95
2023/02/18 22:54:09;;;;;;;8.10;3.60;;;;;;;4.25;74.45;99840.59;107226;1260;1637141;-95
2023/02/18 22:57:12;;;;;;;14.70;5.50;;;;;;;4.28;74.15;99838.37;108558;1259;71656;-95
2023/02/18 23:00:00;;;;;;;11.00;4.90;;;;;;;4.30;74.11;99840.70;108349;1262;59282;-92
2023/02/18 23:02:58;;;;;;;9.40;4.60;;;;;;;4.30;73.89;99844.36;108467;1263;58980;-93
2023/02/18 23:06:38;;;;;;;7.60;3.80;;;;;;;4.26;73.98;99836.06;109289;1255;72147;-95
2023/02/18 23:11:02;;;;;;;10.20;4.80;;;;;;;4.27;73.90;99841.55;108130;1260;62362;-92
2023/02/18 23:14:20;;;;;;;6.60;3.70;;;;;;;4.24;74.08;99837.17;107832;1263;73536;-95
2023/02/18 23:17:12;;;;;;;10.70;3.80;;;;;;;4.23;74.04;99840.52;108046;1264;62214;-91
2023/02/18 23:19:59;;;;;;;10.00;4.90;;;;;;;4.23;74.16;99844.16;108911;1264;60005;-92
2023/02/18 23:23:09;;;;;;;12.40;4.80;;;;;;;4.25;74.19;99845.61;108677;1263;73043;-95
2023/02/18 23:26:00;;;;;;;14.00;6.30;;;;;;;4.29;74.37;99846.46;108372;1263;63450;-92
2023/02/18 23:28:54;;;;;;;14.80;5.80;;;;;;;4.34;74.21;99846.94;108877;1267;72694;-92
2023/02/18 23:31:52;;;;;;;15.90;6.80;;;;;;;4.38;74.11;99847.79;108725;1263;60040;-91
2023/02/18 23:37:05;;;;;;;10.50;4.10;;;;;;;4.41;74.06;99852.84;106330;1289;614185;-94
2023/02/18 23:40:12;;;;;;;8.80;4.10;;;;;;;4.37;73.95;99856.33;109149;1259;59574;-94
2023/02/18 23:42:56;;;;;;;9.90;4.50;;;;;;;4.33;73.96;99857.18;109107;1259;60555;-94
2023/02/18 23:45:44;;;;;;;10.90;5.00;;;;;;;4.28;73.95;99857.23;109209;1260;72270;-94
2023/02/18 23:49:10;;;;;;;15.30;5.90;;;;;;;4.24;74.05;99859.50;109001;1261;63237;31
2023/02/18 23:51:54;;;;;;;12.10;4.00;;;;;;;4.22;74.12;99865.83;107438;1262;71684;-94
2023/02/18 23:54:35;;;;;;;11.40;4.10;;;;;;;4.19;74.12;99866.12;107595;1269;60082;-93
2023/02/18 23:57:05;;;;;;;12.20;4.00;;;;;;;4.17;74.33;99863.48;107625;1260;61356;-93
2023/02/18 23:59:33;;;;;;;10.80;4.90;;;;;;;4.17;74.66;99865.37;107687;1262;72353;-95
